Hillcrest, Florida
Current Conditions -  °F | °C
As of 12:53 AM on Friday 31 Oct 2014 (Local Time) from KHWO Reporting Station
Scattered Clouds Scattered Clouds  
Wind Chill: 23°   Ceiling: Unl
Heat Index: 23°   Visibility: 10mi
Dew Point: 19°   Wind: 3mph
Humidity: 79%   Direction: 250°WSW
Pressure: 29.9"   Gusts: NA
Location:  26.0179°N, 80.2031°W
Report Text: KHWO 310453Z AUTO 25003KT 10SM FEW050 SCT080 23/19 A2990 RMK AO2 SLP123 T02330194 403060194
Loading
Personal Weather Stations






























Interactive Weather Map
Tropical Storm Tracking
New forecast layout! Learn more

10-Day Weather Forecast

Advertisements
Track Severe Weather on mobile